sensor_id;sensor_type;location;lat;lon;timestamp;pressure;altitude;pressure_sealevel;temperature;humidity
12213;BME280;6169;44.158;22.788;2022-10-16T00:02:35;101893.66;;;8.78;69.41
12213;BME280;6169;44.158;22.788;2022-10-16T00:07:39;101901.97;;;9.13;68.63
12213;BME280;6169;44.158;22.788;2022-10-16T00:12:44;101891.91;;;9.07;70.85
12213;BME280;6169;44.158;22.788;2022-10-16T00:17:52;101883.66;;;8.79;70.95
12213;BME280;6169;44.158;22.788;2022-10-16T00:22:56;101883.06;;;8.98;70.96
12213;BME280;6169;44.158;22.788;2022-10-16T00:28:01;101887.84;;;8.67;72.51
12213;BME280;6169;44.158;22.788;2022-10-16T00:33:10;101887.75;;;8.90;69.83
12213;BME280;6169;44.158;22.788;2022-10-16T00:38:14;101888.19;;;8.93;69.74
12213;BME280;6169;44.158;22.788;2022-10-16T00:48:53;101816.84;;;8.65;70.42
12213;BME280;6169;44.158;22.788;2022-10-16T00:54:10;101889.69;;;9.17;69.55
12213;BME280;6169;44.158;22.788;2022-10-16T00:59:18;101907.81;;;9.32;68.31
12213;BME280;6169;44.158;22.788;2022-10-16T01:04:25;101894.03;;;8.75;70.42
12213;BME280;6169;44.158;22.788;2022-10-16T01:09:38;101896.31;;;8.93;66.94
12213;BME280;6169;44.158;22.788;2022-10-16T01:14:49;101898.13;;;8.71;69.60
12213;BME280;6169;44.158;22.788;2022-10-16T01:20:26;101909.69;;;8.36;70.88
12213;BME280;6169;44.158;22.788;2022-10-16T01:26:05;101916.81;;;8.37;70.38
12213;BME280;6169;44.158;22.788;2022-10-16T01:31:24;101929.50;;;8.51;69.55
12213;BME280;6169;44.158;22.788;2022-10-16T01:36:37;101929.97;;;8.40;71.13
12213;BME280;6169;44.158;22.788;2022-10-16T01:41:47;101940.44;;;7.82;74.56
12213;BME280;6169;44.158;22.788;2022-10-16T01:46:55;101941.69;;;8.32;73.14
12213;BME280;6169;44.158;22.788;2022-10-16T01:52:00;101939.72;;;8.11;72.95
12213;BME280;6169;44.158;22.788;2022-10-16T01:57:09;101945.44;;;8.46;70.10
12213;BME280;6169;44.158;22.788;2022-10-16T02:02:15;101947.88;;;8.70;69.66
12213;BME280;6169;44.158;22.788;2022-10-16T02:07:22;101943.19;;;8.94;68.28
12213;BME280;6169;44.158;22.788;2022-10-16T02:12:28;101960.19;;;8.28;69.17
12213;BME280;6169;44.158;22.788;2022-10-16T02:17:37;101969.19;;;8.06;69.74
12213;BME280;6169;44.158;22.788;2022-10-16T02:22:47;101966.50;;;8.21;71.38
12213;BME280;6169;44.158;22.788;2022-10-16T02:27:55;101960.28;;;8.50;69.18
12213;BME280;6169;44.158;22.788;2022-10-16T02:33:04;101968.84;;;8.24;69.65
12213;BME280;6169;44.158;22.788;2022-10-16T02:38:09;101967.91;;;8.31;69.09
12213;BME280;6169;44.158;22.788;2022-10-16T02:43:14;101962.41;;;8.25;68.79
12213;BME280;6169;44.158;22.788;2022-10-16T02:48:20;101966.81;;;8.41;67.71
12213;BME280;6169;44.158;22.788;2022-10-16T02:53:26;101973.94;;;8.19;69.10
12213;BME280;6169;44.158;22.788;2022-10-16T02:58:30;101970.41;;;8.18;69.29
12213;BME280;6169;44.158;22.788;2022-10-16T03:03:34;101970.59;;;8.17;67.82
12213;BME280;6169;44.158;22.788;2022-10-16T03:08:38;101981.44;;;7.94;68.29
12213;BME280;6169;44.158;22.788;2022-10-16T03:13:42;101982.25;;;8.17;67.43
12213;BME280;6169;44.158;22.788;2022-10-16T03:18:49;101990.97;;;7.81;68.31
12213;BME280;6169;44.158;22.788;2022-10-16T03:23:53;102001.88;;;8.19;67.30
12213;BME280;6169;44.158;22.788;2022-10-16T03:28:57;102005.84;;;8.08;67.88
12213;BME280;6169;44.158;22.788;2022-10-16T03:34:02;102010.34;;;7.62;69.22
12213;BME280;6169;44.158;22.788;2022-10-16T03:39:07;102000.22;;;8.10;66.58
12213;BME280;6169;44.158;22.788;2022-10-16T03:44:10;101999.94;;;8.05;67.50
12213;BME280;6169;44.158;22.788;2022-10-16T03:49:15;102007.84;;;7.83;67.78
12213;BME280;6169;44.158;22.788;2022-10-16T03:54:19;102014.44;;;7.58;69.06
12213;BME280;6169;44.158;22.788;2022-10-16T03:59:24;102013.19;;;7.37;69.62
12213;BME280;6169;44.158;22.788;2022-10-16T04:04:29;102009.91;;;7.19;70.28
12213;BME280;6169;44.158;22.788;2022-10-16T04:09:33;102014.53;;;7.02;70.69
12213;BME280;6169;44.158;22.788;2022-10-16T04:14:39;102015.41;;;7.65;68.33
12213;BME280;6169;44.158;22.788;2022-10-16T04:19:44;102021.25;;;7.45;69.35
12213;BME280;6169;44.158;22.788;2022-10-16T04:24:50;102028.50;;;7.14;69.33
12213;BME280;6169;44.158;22.788;2022-10-16T04:30:00;102028.38;;;7.07;70.65
12213;BME280;6169;44.158;22.788;2022-10-16T04:35:09;102026.47;;;7.16;68.40
12213;BME280;6169;44.158;22.788;2022-10-16T04:40:15;102031.44;;;6.96;69.63
12213;BME280;6169;44.158;22.788;2022-10-16T04:45:30;102038.03;;;6.93;69.84
12213;BME280;6169;44.158;22.788;2022-10-16T04:50:35;102040.09;;;6.75;71.11
12213;BME280;6169;44.158;22.788;2022-10-16T04:55:40;102029.97;;;6.69;70.64
12213;BME280;6169;44.158;22.788;2022-10-16T05:00:45;102044.56;;;7.07;71.01
12213;BME280;6169;44.158;22.788;2022-10-16T05:05:51;102046.59;;;6.97;70.92
12213;BME280;6169;44.158;22.788;2022-10-16T05:10:55;102059.63;;;6.85;72.61
12213;BME280;6169;44.158;22.788;2022-10-16T05:16:04;102061.28;;;6.94;73.47
12213;BME280;6169;44.158;22.788;2022-10-16T05:21:10;102073.38;;;7.15;72.33
12213;BME280;6169;44.158;22.788;2022-10-16T05:26:14;102075.44;;;7.05;74.69
12213;BME280;6169;44.158;22.788;2022-10-16T05:31:18;102081.25;;;7.33;73.90
12213;BME280;6169;44.158;22.788;2022-10-16T05:36:24;102085.00;;;7.63;74.08
12213;BME280;6169;44.158;22.788;2022-10-16T05:41:29;102089.50;;;7.71;73.00
12213;BME280;6169;44.158;22.788;2022-10-16T05:46:32;102104.03;;;8.09;73.06
12213;BME280;6169;44.158;22.788;2022-10-16T05:51:38;102098.00;;;8.22;73.48
12213;BME280;6169;44.158;22.788;2022-10-16T05:56:43;102116.03;;;8.29;74.33
12213;BME280;6169;44.158;22.788;2022-10-16T06:01:47;102112.91;;;8.41;75.54
12213;BME280;6169;44.158;22.788;2022-10-16T06:06:53;102121.31;;;8.69;74.75
12213;BME280;6169;44.158;22.788;2022-10-16T06:11:57;102125.75;;;8.85;75.50
12213;BME280;6169;44.158;22.788;2022-10-16T06:17:00;102132.88;;;9.15;75.49
12213;BME280;6169;44.158;22.788;2022-10-16T06:22:06;102132.81;;;9.38;76.09
12213;BME280;6169;44.158;22.788;2022-10-16T06:27:15;102148.75;;;9.18;77.58
12213;BME280;6169;44.158;22.788;2022-10-16T06:32:19;102150.72;;;9.10;80.41
12213;BME280;6169;44.158;22.788;2022-10-16T06:37:37;102161.22;;;9.28;78.54
12213;BME280;6169;44.158;22.788;2022-10-16T06:42:41;102164.84;;;9.64;77.87
12213;BME280;6169;44.158;22.788;2022-10-16T06:47:46;102169.00;;;10.11;76.42
12213;BME280;6169;44.158;22.788;2022-10-16T06:52:51;102193.19;;;10.28;75.76
12213;BME280;6169;44.158;22.788;2022-10-16T06:57:56;102176.00;;;10.42;76.52
12213;BME280;6169;44.158;22.788;2022-10-16T07:03:00;102178.84;;;10.55;75.77
12213;BME280;6169;44.158;22.788;2022-10-16T07:08:09;102180.16;;;10.60;76.06
12213;BME280;6169;44.158;22.788;2022-10-16T07:13:12;102181.56;;;10.77;76.32
12213;BME280;6169;44.158;22.788;2022-10-16T07:18:15;102167.72;;;11.21;74.02
12213;BME280;6169;44.158;22.788;2022-10-16T07:23:21;102174.47;;;11.32;72.96
12213;BME280;6169;44.158;22.788;2022-10-16T07:28:25;102181.75;;;11.25;73.26
12213;BME280;6169;44.158;22.788;2022-10-16T07:33:29;102183.44;;;11.61;71.56
12213;BME280;6169;44.158;22.788;2022-10-16T07:38:34;102187.03;;;11.33;71.81
12213;BME280;6169;44.158;22.788;2022-10-16T07:43:39;102186.59;;;11.01;69.86
12213;BME280;6169;44.158;22.788;2022-10-16T07:48:43;102198.00;;;11.46;69.38
12213;BME280;6169;44.158;22.788;2022-10-16T07:53:51;102197.19;;;11.53;70.47
12213;BME280;6169;44.158;22.788;2022-10-16T07:58:55;102201.00;;;11.58;70.35
12213;BME280;6169;44.158;22.788;2022-10-16T08:04:02;102201.63;;;12.02;68.63
12213;BME280;6169;44.158;22.788;2022-10-16T08:09:08;102212.56;;;12.08;68.61
12213;BME280;6169;44.158;22.788;2022-10-16T08:14:12;102214.25;;;12.09;68.46
12213;BME280;6169;44.158;22.788;2022-10-16T08:19:17;102206.78;;;12.31;67.87
12213;BME280;6169;44.158;22.788;2022-10-16T08:24:21;102211.50;;;12.91;65.11
12213;BME280;6169;44.158;22.788;2022-10-16T08:29:23;102215.94;;;12.98;63.81
12213;BME280;6169;44.158;22.788;2022-10-16T08:34:26;102211.31;;;12.99;63.55
12213;BME280;6169;44.158;22.788;2022-10-16T08:39:30;102206.69;;;12.79;63.85
12213;BME280;6169;44.158;22.788;2022-10-16T08:50:10;102227.25;;;13.02;64.98
12213;BME280;6169;44.158;22.788;2022-10-16T08:56:18;102224.50;;;13.22;63.34
12213;BME280;6169;44.158;22.788;2022-10-16T09:01:13;102221.13;;;13.33;63.57
12213;BME280;6169;44.158;22.788;2022-10-16T09:06:30;102220.31;;;13.26;62.50
12213;BME280;6169;44.158;22.788;2022-10-16T09:12:12;102221.78;;;14.13;59.52
12213;BME280;6169;44.158;22.788;2022-10-16T09:19:01;102216.09;;;14.53;58.76
12213;BME280;6169;44.158;22.788;2022-10-16T09:23:28;102214.53;;;14.32;59.44
12213;BME280;6169;44.158;22.788;2022-10-16T09:34:48;102220.03;;;15.21;55.75
12213;BME280;6169;44.158;22.788;2022-10-16T09:39:52;102219.66;;;15.79;55.12
12213;BME280;6169;44.158;22.788;2022-10-16T09:45:20;102212.06;;;15.81;53.52
12213;BME280;6169;44.158;22.788;2022-10-16T09:50:27;102212.50;;;15.60;54.55
12213;BME280;6169;44.158;22.788;2022-10-16T09:55:47;102224.22;;;15.85;54.59
12213;BME280;6169;44.158;22.788;2022-10-16T10:00:54;102218.16;;;15.40;53.83
12213;BME280;6169;44.158;22.788;2022-10-16T10:06:43;102204.66;;;16.00;52.93
12213;BME280;6169;44.158;22.788;2022-10-16T10:11:52;102198.75;;;15.66;51.28
12213;BME280;6169;44.158;22.788;2022-10-16T10:17:14;102195.94;;;16.52;49.91
12213;BME280;6169;44.158;22.788;2022-10-16T10:22:27;102193.72;;;16.30;49.19
12213;BME280;6169;44.158;22.788;2022-10-16T10:27:42;102194.13;;;15.85;50.06
12213;BME280;6169;44.158;22.788;2022-10-16T10:33:09;102177.78;;;16.09;50.05
12213;BME280;6169;44.158;22.788;2022-10-16T10:38:31;102178.13;;;16.31;50.68
12213;BME280;6169;44.158;22.788;2022-10-16T10:43:50;102172.78;;;16.06;49.60
12213;BME280;6169;44.158;22.788;2022-10-16T10:49:17;102171.03;;;16.42;49.83
12213;BME280;6169;44.158;22.788;2022-10-16T10:54:35;102171.97;;;17.01;47.83
12213;BME280;6169;44.158;22.788;2022-10-16T11:00:03;102161.78;;;16.66;47.64
12213;BME280;6169;44.158;22.788;2022-10-16T11:05:31;102152.19;;;16.87;48.58
12213;BME280;6169;44.158;22.788;2022-10-16T11:10:48;102134.25;;;17.55;46.02
12213;BME280;6169;44.158;22.788;2022-10-16T11:16:00;102140.34;;;18.14;45.18
12213;BME280;6169;44.158;22.788;2022-10-16T11:21:08;102152.28;;;17.91;44.77
12213;BME280;6169;44.158;22.788;2022-10-16T11:26:19;102142.84;;;17.47;45.29
12213;BME280;6169;44.158;22.788;2022-10-16T11:31:29;102129.72;;;17.89;43.79
12213;BME280;6169;44.158;22.788;2022-10-16T11:36:58;102132.28;;;18.36;42.63
12213;BME280;6169;44.158;22.788;2022-10-16T11:42:11;102134.03;;;18.59;41.17
12213;BME280;6169;44.158;22.788;2022-10-16T11:47:27;102141.03;;;19.18;40.40
12213;BME280;6169;44.158;22.788;2022-10-16T11:52:43;102135.00;;;19.21;39.64
12213;BME280;6169;44.158;22.788;2022-10-16T11:57:51;102132.44;;;18.64;39.29
12213;BME280;6169;44.158;22.788;2022-10-16T12:03:00;102117.03;;;18.00;40.76
12213;BME280;6169;44.158;22.788;2022-10-16T12:08:11;102124.19;;;18.80;40.03
12213;BME280;6169;44.158;22.788;2022-10-16T12:13:35;102122.31;;;19.20;38.78
12213;BME280;6169;44.158;22.788;2022-10-16T12:18:42;102118.09;;;19.12;39.60
12213;BME280;6169;44.158;22.788;2022-10-16T12:23:52;102126.00;;;19.47;38.86
12213;BME280;6169;44.158;22.788;2022-10-16T12:29:12;102124.84;;;19.87;37.85
12213;BME280;6169;44.158;22.788;2022-10-16T12:34:21;102112.66;;;20.05;36.68
12213;BME280;6169;44.158;22.788;2022-10-16T12:39:27;102112.22;;;20.46;36.29
12213;BME280;6169;44.158;22.788;2022-10-16T12:44:36;102105.03;;;20.17;36.02
12213;BME280;6169;44.158;22.788;2022-10-16T12:49:50;102101.16;;;20.13;35.65
12213;BME280;6169;44.158;22.788;2022-10-16T12:54:57;102097.59;;;20.18;35.67
12213;BME280;6169;44.158;22.788;2022-10-16T13:00:13;102099.03;;;20.53;35.83
12213;BME280;6169;44.158;22.788;2022-10-16T13:05:24;102093.00;;;20.56;35.13
12213;BME280;6169;44.158;22.788;2022-10-16T13:10:41;102099.56;;;20.23;34.98
12213;BME280;6169;44.158;22.788;2022-10-16T13:16:04;102091.94;;;20.03;35.27
12213;BME280;6169;44.158;22.788;2022-10-16T13:21:23;102094.94;;;20.01;35.58
12213;BME280;6169;44.158;22.788;2022-10-16T13:26:41;102099.91;;;19.99;35.75
12213;BME280;6169;44.158;22.788;2022-10-16T13:31:56;102100.75;;;20.00;35.56
12213;BME280;6169;44.158;22.788;2022-10-16T13:36:58;102108.81;;;20.38;34.96
12213;BME280;6169;44.158;22.788;2022-10-16T13:42:05;102115.41;;;20.37;34.50
12213;BME280;6169;44.158;22.788;2022-10-16T13:47:17;102114.16;;;19.69;35.10
12213;BME280;6169;44.158;22.788;2022-10-16T13:52:22;102117.50;;;19.71;34.64
12213;BME280;6169;44.158;22.788;2022-10-16T13:57:27;102115.19;;;19.63;35.74
12213;BME280;6169;44.158;22.788;2022-10-16T14:02:35;102124.50;;;20.38;35.00
12213;BME280;6169;44.158;22.788;2022-10-16T14:07:43;102102.34;;;20.50;34.87
12213;BME280;6169;44.158;22.788;2022-10-16T14:12:58;102119.09;;;20.43;34.02
12213;BME280;6169;44.158;22.788;2022-10-16T14:18:05;102120.63;;;20.07;34.67
12213;BME280;6169;44.158;22.788;2022-10-16T14:23:20;102121.47;;;20.34;35.95
12213;BME280;6169;44.158;22.788;2022-10-16T14:28:25;102122.22;;;20.25;34.23
12213;BME280;6169;44.158;22.788;2022-10-16T14:33:34;102117.72;;;20.46;34.29
12213;BME280;6169;44.158;22.788;2022-10-16T14:38:36;102133.63;;;19.84;35.32
12213;BME280;6169;44.158;22.788;2022-10-16T14:43:42;102111.91;;;19.88;36.09
12213;BME280;6169;44.158;22.788;2022-10-16T14:48:51;102117.78;;;19.97;35.44
12213;BME280;6169;44.158;22.788;2022-10-16T14:54:03;102129.56;;;19.70;35.47
12213;BME280;6169;44.158;22.788;2022-10-16T14:59:06;102125.44;;;19.45;35.95
12213;BME280;6169;44.158;22.788;2022-10-16T15:04:27;102133.84;;;19.17;37.24
12213;BME280;6169;44.158;22.788;2022-10-16T15:09:37;102135.22;;;19.36;36.72
12213;BME280;6169;44.158;22.788;2022-10-16T15:14:44;102130.56;;;19.20;36.79
12213;BME280;6169;44.158;22.788;2022-10-16T15:19:48;102136.09;;;19.03;37.49
12213;BME280;6169;44.158;22.788;2022-10-16T15:24:53;102140.94;;;18.45;38.43
12213;BME280;6169;44.158;22.788;2022-10-16T15:29:57;102146.50;;;18.05;39.88
12213;BME280;6169;44.158;22.788;2022-10-16T15:35:02;102153.31;;;17.62;41.59
12213;BME280;6169;44.158;22.788;2022-10-16T15:40:11;102153.59;;;17.37;44.32
12213;BME280;6169;44.158;22.788;2022-10-16T15:45:15;102157.91;;;17.09;46.63
12213;BME280;6169;44.158;22.788;2022-10-16T15:50:20;102162.31;;;16.87;47.60
12213;BME280;6169;44.158;22.788;2022-10-16T15:55:24;102168.63;;;16.45;49.03
12213;BME280;6169;44.158;22.788;2022-10-16T16:00:29;102171.22;;;16.10;50.38
12213;BME280;6169;44.158;22.788;2022-10-16T16:05:39;102180.94;;;15.76;51.61
12213;BME280;6169;44.158;22.788;2022-10-16T16:10:42;102179.66;;;15.60;52.39
12213;BME280;6169;44.158;22.788;2022-10-16T16:15:47;102190.72;;;15.46;53.06
12213;BME280;6169;44.158;22.788;2022-10-16T16:20:52;102191.44;;;15.17;53.86
12213;BME280;6169;44.158;22.788;2022-10-16T16:26:13;102197.53;;;14.94;54.10
12213;BME280;6169;44.158;22.788;2022-10-16T16:31:29;102200.59;;;14.72;55.13
12213;BME280;6169;44.158;22.788;2022-10-16T16:36:36;102201.06;;;14.69;55.13
12213;BME280;6169;44.158;22.788;2022-10-16T16:41:41;102221.25;;;14.68;54.60
12213;BME280;6169;44.158;22.788;2022-10-16T16:46:53;102226.84;;;14.48;54.72
12213;BME280;6169;44.158;22.788;2022-10-16T16:51:58;102229.06;;;14.33;55.72
12213;BME280;6169;44.158;22.788;2022-10-16T16:57:03;102241.25;;;14.24;55.89
12213;BME280;6169;44.158;22.788;2022-10-16T17:02:09;102241.38;;;13.90;56.76
12213;BME280;6169;44.158;22.788;2022-10-16T17:07:13;102232.91;;;14.12;56.88
12213;BME280;6169;44.158;22.788;2022-10-16T17:12:16;102239.53;;;13.91;57.31
12213;BME280;6169;44.158;22.788;2022-10-16T17:17:22;102237.66;;;13.72;57.96
12213;BME280;6169;44.158;22.788;2022-10-16T17:22:28;102241.88;;;13.47;58.73
12213;BME280;6169;44.158;22.788;2022-10-16T17:27:32;102271.03;;;13.54;59.21
12213;BME280;6169;44.158;22.788;2022-10-16T17:32:37;102254.06;;;13.45;59.19
12213;BME280;6169;44.158;22.788;2022-10-16T17:37:47;102255.75;;;13.46;58.64
12213;BME280;6169;44.158;22.788;2022-10-16T17:42:53;102258.91;;;13.43;58.47
12213;BME280;6169;44.158;22.788;2022-10-16T17:47:58;102260.78;;;13.22;60.61
12213;BME280;6169;44.158;22.788;2022-10-16T17:53:03;102260.56;;;12.97;62.00
12213;BME280;6169;44.158;22.788;2022-10-16T17:58:06;102270.16;;;12.73;63.46
12213;BME280;6169;44.158;22.788;2022-10-16T18:03:10;102265.78;;;12.86;63.03
12213;BME280;6169;44.158;22.788;2022-10-16T18:08:16;102270.00;;;12.82;62.90
12213;BME280;6169;44.158;22.788;2022-10-16T18:13:20;102277.44;;;12.53;64.35
12213;BME280;6169;44.158;22.788;2022-10-16T18:18:22;102276.75;;;12.31;65.13
12213;BME280;6169;44.158;22.788;2022-10-16T18:23:28;102285.31;;;12.28;65.55
12213;BME280;6169;44.158;22.788;2022-10-16T18:28:32;102293.81;;;12.11;65.07
12213;BME280;6169;44.158;22.788;2022-10-16T18:33:34;102297.94;;;12.01;65.51
12213;BME280;6169;44.158;22.788;2022-10-16T18:38:44;102305.13;;;12.15;65.71
12213;BME280;6169;44.158;22.788;2022-10-16T18:43:52;102315.47;;;11.91;65.24
12213;BME280;6169;44.158;22.788;2022-10-16T18:48:56;102294.13;;;11.39;66.86
12213;BME280;6169;44.158;22.788;2022-10-16T18:54:09;102326.09;;;11.58;68.03
12213;BME280;6169;44.158;22.788;2022-10-16T18:59:13;102328.94;;;11.50;69.41
12213;BME280;6169;44.158;22.788;2022-10-16T19:04:17;102337.94;;;11.51;68.27
12213;BME280;6169;44.158;22.788;2022-10-16T19:09:24;102347.53;;;11.46;67.79
12213;BME280;6169;44.158;22.788;2022-10-16T19:14:28;102355.06;;;11.23;68.11
12213;BME280;6169;44.158;22.788;2022-10-16T19:19:33;102362.44;;;11.08;70.44
12213;BME280;6169;44.158;22.788;2022-10-16T19:24:41;102364.22;;;11.00;70.17
12213;BME280;6169;44.158;22.788;2022-10-16T19:29:45;102369.91;;;11.20;69.09
12213;BME280;6169;44.158;22.788;2022-10-16T19:34:49;102376.25;;;10.91;70.58
12213;BME280;6169;44.158;22.788;2022-10-16T19:39:55;102391.09;;;11.10;70.18
12213;BME280;6169;44.158;22.788;2022-10-16T19:45:01;102395.75;;;11.16;68.71
12213;BME280;6169;44.158;22.788;2022-10-16T19:50:06;102405.00;;;11.00;68.32
12213;BME280;6169;44.158;22.788;2022-10-16T19:55:13;102415.47;;;10.52;70.04
12213;BME280;6169;44.158;22.788;2022-10-16T20:00:18;102428.47;;;10.57;70.35
12213;BME280;6169;44.158;22.788;2022-10-16T20:05:26;102429.53;;;10.56;67.81
12213;BME280;6169;44.158;22.788;2022-10-16T20:10:31;102430.34;;;10.71;67.08
12213;BME280;6169;44.158;22.788;2022-10-16T20:15:36;102440.94;;;10.66;66.53
12213;BME280;6169;44.158;22.788;2022-10-16T20:20:42;102437.44;;;10.28;67.62
12213;BME280;6169;44.158;22.788;2022-10-16T20:25:49;102449.06;;;10.51;65.93
12213;BME280;6169;44.158;22.788;2022-10-16T20:30:54;102451.03;;;10.05;66.52
12213;BME280;6169;44.158;22.788;2022-10-16T20:36:06;102454.50;;;9.99;67.22
12213;BME280;6169;44.158;22.788;2022-10-16T20:41:19;102458.75;;;10.16;66.28
12213;BME280;6169;44.158;22.788;2022-10-16T20:46:28;102453.16;;;9.80;67.43
12213;BME280;6169;44.158;22.788;2022-10-16T20:51:32;102451.31;;;9.95;67.26
12213;BME280;6169;44.158;22.788;2022-10-16T20:56:37;102457.72;;;10.02;67.52
12213;BME280;6169;44.158;22.788;2022-10-16T21:01:41;102459.16;;;9.90;66.90
12213;BME280;6169;44.158;22.788;2022-10-16T21:06:45;102464.59;;;9.90;66.87
12213;BME280;6169;44.158;22.788;2022-10-16T21:11:48;102474.91;;;9.72;66.35
12213;BME280;6169;44.158;22.788;2022-10-16T21:16:53;102473.31;;;9.54;67.72
12213;BME280;6169;44.158;22.788;2022-10-16T21:21:57;102472.88;;;9.11;67.39
12213;BME280;6169;44.158;22.788;2022-10-16T21:27:03;102439.47;;;9.27;65.90
12213;BME280;6169;44.158;22.788;2022-10-16T21:32:07;102491.34;;;9.47;66.71
12213;BME280;6169;44.158;22.788;2022-10-16T21:37:11;102496.53;;;9.26;67.48
12213;BME280;6169;44.158;22.788;2022-10-16T21:42:17;102501.03;;;9.02;67.50
12213;BME280;6169;44.158;22.788;2022-10-16T21:47:21;102506.75;;;9.15;67.32
12213;BME280;6169;44.158;22.788;2022-10-16T21:52:26;102504.75;;;9.09;66.95
12213;BME280;6169;44.158;22.788;2022-10-16T21:57:31;102500.28;;;9.16;67.07
12213;BME280;6169;44.158;22.788;2022-10-16T22:02:35;102507.78;;;9.06;66.61
12213;BME280;6169;44.158;22.788;2022-10-16T22:07:45;102506.47;;;9.02;66.96
12213;BME280;6169;44.158;22.788;2022-10-16T22:12:50;102515.66;;;8.85;68.70
12213;BME280;6169;44.158;22.788;2022-10-16T22:17:54;102512.69;;;9.11;66.93
12213;BME280;6169;44.158;22.788;2022-10-16T22:22:58;102520.97;;;8.70;67.51
12213;BME280;6169;44.158;22.788;2022-10-16T22:28:03;102518.97;;;9.03;67.58
12213;BME280;6169;44.158;22.788;2022-10-16T22:33:08;102526.16;;;8.88;66.91
12213;BME280;6169;44.158;22.788;2022-10-16T22:38:11;102526.16;;;8.88;66.83
12213;BME280;6169;44.158;22.788;2022-10-16T22:43:17;102542.88;;;8.91;66.09
12213;BME280;6169;44.158;22.788;2022-10-16T22:48:23;102530.41;;;8.82;67.75
12213;BME280;6169;44.158;22.788;2022-10-16T22:53:27;102537.03;;;8.71;67.53
12213;BME280;6169;44.158;22.788;2022-10-16T22:58:33;102533.50;;;8.54;68.04
12213;BME280;6169;44.158;22.788;2022-10-16T23:03:37;102537.59;;;8.50;68.21
12213;BME280;6169;44.158;22.788;2022-10-16T23:08:41;102468.47;;;8.15;67.03
12213;BME280;6169;44.158;22.788;2022-10-16T23:13:47;102550.28;;;8.09;70.28
12213;BME280;6169;44.158;22.788;2022-10-16T23:18:52;102558.56;;;8.24;69.54
12213;BME280;6169;44.158;22.788;2022-10-16T23:24:01;102566.81;;;7.89;70.42
12213;BME280;6169;44.158;22.788;2022-10-16T23:29:08;102565.47;;;7.94;70.14
12213;BME280;6169;44.158;22.788;2022-10-16T23:34:15;102566.44;;;7.76;71.13
12213;BME280;6169;44.158;22.788;2022-10-16T23:39:35;102513.94;;;7.95;67.71
12213;BME280;6169;44.158;22.788;2022-10-16T23:44:46;102563.28;;;8.30;67.63
12213;BME280;6169;44.158;22.788;2022-10-16T23:49:51;102570.56;;;8.21;67.88
12213;BME280;6169;44.158;22.788;2022-10-16T23:54:56;102572.25;;;8.06;68.10
